Time;durP1;ratioP1;P1;durP2;ratioP2;P2;SDS_P1;SDS_P2;PMS_P1;PMS_P2;Temp;Humidity;BMP_temperature;BMP_pressure;BME280_temperature;BME280_humidity;BME280_pressure;Samples;Min_cycle;Max_cycle;Signal;HPM_P1;HPM_P2
2023/05/21 00:00:59;;;;;;;10.63;2.97;;;11.50;88.60;;;;;;5050065;28;20385;-69
2023/05/21 00:03:26;;;;;;;7.13;2.88;;;11.50;88.70;;;;;;5046624;28;20120;-69
2023/05/21 00:05:52;;;;;;;10.18;3.08;;;11.50;88.60;;;;;;5046578;28;20116;-69
2023/05/21 00:08:17;;;;;;;8.40;3.28;;;11.50;88.60;;;;;;5050367;28;20813;-69
2023/05/21 00:10:43;;;;;;;10.77;2.97;;;11.50;88.40;;;;;;5061867;28;20024;-69
2023/05/21 00:13:09;;;;;;;10.43;3.20;;;11.50;88.10;;;;;;5052309;28;20108;-69
2023/05/21 00:15:35;;;;;;;6.47;2.90;;;11.50;88.10;;;;;;5046509;28;20090;-69
2023/05/21 00:18:01;;;;;;;5.50;2.63;;;11.50;88.00;;;;;;5059027;28;20052;-69
2023/05/21 00:20:28;;;;;;;8.45;3.17;;;11.40;88.00;;;;;;5049501;28;20072;-70
2023/05/21 00:22:53;;;;;;;10.60;3.60;;;11.40;88.20;;;;;;5046902;28;20025;-69
2023/05/21 00:25:19;;;;;;;7.13;2.90;;;11.30;88.20;;;;;;5050226;28;20049;-69
2023/05/21 00:27:45;;;;;;;6.45;2.88;;;11.30;88.30;;;;;;5044842;28;20033;-69
2023/05/21 00:30:10;;;;;;;6.85;3.08;;;11.20;88.40;;;;;;5045266;28;20040;-69
2023/05/21 00:32:36;;;;;;;8.63;3.10;;;11.20;88.20;;;;;;5036236;28;20049;-69
2023/05/21 00:35:02;;;;;;;5.85;2.75;;;11.20;88.40;;;;;;5048944;28;20031;-69
2023/05/21 00:37:31;;;;;;;10.82;3.67;;;11.10;88.50;;;;;;5047951;28;20048;-69
2023/05/21 00:39:57;;;;;;;6.57;3.08;;;11.10;88.50;;;;;;5056061;28;20017;-70
2023/05/21 00:42:26;;;;;;;11.68;3.28;;;11.10;88.50;;;;;;5042692;28;20402;-70
2023/05/21 00:44:53;;;;;;;8.23;3.15;;;11.10;88.60;;;;;;5047030;28;20061;-69
2023/05/21 00:47:20;;;;;;;8.40;2.90;;;11.10;88.50;;;;;;5055275;28;20519;-69
2023/05/21 00:49:47;;;;;;;6.55;2.80;;;11.10;88.50;;;;;;5045463;28;20031;-70
2023/05/21 00:52:13;;;;;;;7.90;2.92;;;11.10;88.50;;;;;;5060515;28;20100;-69
2023/05/21 00:54:40;;;;;;;7.78;2.90;;;11.20;88.50;;;;;;5049592;28;20116;-69
2023/05/21 00:57:05;;;;;;;5.28;2.78;;;11.20;88.40;;;;;;5049333;28;20446;-69
2023/05/21 00:59:32;;;;;;;6.65;2.67;;;11.30;88.10;;;;;;5048690;28;20035;-69
2023/05/21 01:02:03;;;;;;;10.07;3.33;;;11.30;88.20;;;;;;5049859;28;20472;-70
2023/05/21 01:04:30;;;;;;;8.35;2.97;;;11.30;87.90;;;;;;5047227;28;20032;-70
2023/05/21 01:06:57;;;;;;;7.03;2.63;;;11.30;88.00;;;;;;5046591;28;20116;-69
2023/05/21 01:09:25;;;;;;;4.85;2.65;;;11.30;87.80;;;;;;5051948;28;20418;-69
2023/05/21 01:11:51;;;;;;;11.85;2.95;;;11.20;87.90;;;;;;5049950;28;20061;-69
2023/05/21 01:14:19;;;;;;;6.85;2.90;;;11.20;87.80;;;;;;5063764;28;20032;-69
2023/05/21 01:16:47;;;;;;;5.82;2.90;;;11.10;88.00;;;;;;5054805;28;20043;-69
2023/05/21 01:19:15;;;;;;;7.78;2.75;;;11.10;88.10;;;;;;5047787;28;20029;-69
2023/05/21 01:21:55;;;;;;;6.78;3.55;;;11.00;88.20;;;;;;5050215;28;20045;-69
2023/05/21 01:24:20;;;;;;;6.95;2.72;;;11.00;88.30;;;;;;5044197;28;20029;-69
2023/05/21 01:26:46;;;;;;;7.90;2.80;;;11.10;88.30;;;;;;5045412;28;20575;-70
2023/05/21 01:29:13;;;;;;;5.20;2.70;;;11.10;88.20;;;;;;5041713;28;20037;-70
2023/05/21 01:31:55;;;;;;;8.05;2.45;;;11.10;88.10;;;;;;5054734;28;20024;-70
2023/05/21 01:34:29;;;;;;;6.78;2.55;;;11.20;87.70;;;;;;5035512;28;20033;-70
2023/05/21 01:37:28;;;;;;;6.70;3.17;;;11.30;87.90;;;;;;5045862;28;20033;-69
2023/05/21 01:40:09;;;;;;;4.78;2.33;;;11.30;87.60;;;;;;5046268;28;20398;-70
2023/05/21 01:42:37;;;;;;;6.82;2.38;;;11.30;87.40;;;;;;5043334;28;20021;-70
2023/05/21 01:45:05;;;;;;;7.45;2.53;;;11.30;87.30;;;;;;5049511;28;20654;-70
2023/05/21 01:47:32;;;;;;;9.27;2.75;;;11.30;87.30;;;;;;5051783;28;20021;-69
2023/05/21 01:49:59;;;;;;;7.13;2.53;;;11.30;87.00;;;;;;5047007;28;20546;-69
2023/05/21 01:52:25;;;;;;;7.93;2.53;;;11.30;87.10;;;;;;5044353;28;20044;-70
2023/05/21 01:54:50;;;;;;;4.75;2.17;;;11.30;87.00;;;;;;5052683;28;20064;-70
2023/05/21 01:57:17;;;;;;;5.65;2.75;;;11.40;86.90;;;;;;5039934;28;20037;-70
2023/05/21 01:59:43;;;;;;;5.40;2.35;;;11.40;86.90;;;;;;5051482;28;20457;-70
2023/05/21 02:02:08;;;;;;;9.30;2.70;;;11.40;86.70;;;;;;5052016;28;20049;-69
2023/05/21 02:04:34;;;;;;;7.00;2.40;;;11.40;86.50;;;;;;5049347;28;20037;-70
2023/05/21 02:07:01;;;;;;;7.18;2.45;;;11.40;86.20;;;;;;5045253;28;20107;-70
2023/05/21 02:09:26;;;;;;;5.13;2.60;;;11.40;86.40;;;;;;5042023;28;20029;-70
2023/05/21 02:11:52;;;;;;;4.82;2.20;;;11.40;86.50;;;;;;5042731;28;20454;-70
2023/05/21 02:14:17;;;;;;;5.15;2.20;;;11.30;86.50;;;;;;5046148;28;20032;-69
2023/05/21 02:16:42;;;;;;;8.13;2.80;;;11.30;86.60;;;;;;5051874;28;20025;-69
2023/05/21 02:19:09;;;;;;;6.40;2.80;;;11.30;86.60;;;;;;5046989;28;20064;-70
2023/05/21 02:21:35;;;;;;;8.10;2.53;;;11.30;86.70;;;;;;5048984;28;20032;-69
2023/05/21 02:24:00;;;;;;;7.38;2.88;;;11.20;86.80;;;;;;5049929;28;20070;-69
2023/05/21 02:26:26;;;;;;;4.20;2.25;;;11.20;86.90;;;;;;5038267;28;20520;-70
2023/05/21 02:28:54;;;;;;;7.82;2.75;;;11.20;87.00;;;;;;5039912;28;20070;-70
2023/05/21 02:31:19;;;;;;;8.63;2.63;;;11.20;86.90;;;;;;5047982;28;20024;-70
2023/05/21 02:33:45;;;;;;;5.45;2.30;;;11.20;86.70;;;;;;5050291;28;20032;-70
2023/05/21 02:36:11;;;;;;;4.40;2.17;;;11.10;86.80;;;;;;5047136;28;20032;-69
2023/05/21 02:38:39;;;;;;;8.27;3.00;;;11.10;86.90;;;;;;5050419;28;20035;-70
2023/05/21 02:41:04;;;;;;;7.57;2.60;;;11.20;87.00;;;;;;5056736;28;20036;-69
2023/05/21 02:43:30;;;;;;;6.55;2.60;;;11.20;87.00;;;;;;5042770;28;20033;-69
2023/05/21 02:45:55;;;;;;;6.30;2.40;;;11.10;86.80;;;;;;5050573;28;20044;-72
2023/05/21 02:48:21;;;;;;;9.98;2.80;;;11.10;86.90;;;;;;5066671;28;20119;-71
2023/05/21 02:50:46;;;;;;;6.38;2.88;;;11.10;86.70;;;;;;5050120;28;20393;-71
2023/05/21 02:53:12;;;;;;;6.78;2.65;;;11.20;86.90;;;;;;5056811;28;20457;-71
2023/05/21 02:55:37;;;;;;;6.28;2.22;;;11.20;86.70;;;;;;5048737;28;20040;-72
2023/05/21 02:58:03;;;;;;;5.30;2.40;;;11.20;86.80;;;;;;5044703;28;20021;-71
2023/05/21 03:00:28;;;;;;;8.68;2.70;;;11.10;86.70;;;;;;5044412;28;20052;-72
2023/05/21 03:02:54;;;;;;;5.82;2.50;;;11.20;86.70;;;;;;5053341;28;20040;-71
2023/05/21 03:05:20;;;;;;;5.88;2.45;;;11.10;86.70;;;;;;5044528;28;20059;-71
2023/05/21 03:07:45;;;;;;;6.35;2.65;;;11.10;86.70;;;;;;5050506;28;20029;-71
2023/05/21 03:10:11;;;;;;;6.03;2.38;;;11.10;86.60;;;;;;5050045;28;20537;-71
2023/05/21 03:12:36;;;;;;;6.53;2.90;;;11.10;86.90;;;;;;5049897;28;20088;-71
2023/05/21 03:15:02;;;;;;;7.20;2.65;;;11.10;86.70;;;;;;5046174;28;20024;-71
2023/05/21 03:17:28;;;;;;;4.85;2.67;;;11.10;86.90;;;;;;5050835;28;20034;-71
2023/05/21 03:19:53;;;;;;;10.57;2.70;;;11.10;86.80;;;;;;5045981;28;20475;-72
2023/05/21 03:22:19;;;;;;;7.88;2.53;;;11.00;86.80;;;;;;5044722;28;20070;-71
2023/05/21 03:24:45;;;;;;;7.15;2.65;;;11.00;87.30;;;;;;5053133;28;20045;-71
2023/05/21 03:27:10;;;;;;;6.32;2.53;;;11.00;87.30;;;;;;5047540;28;20028;-71
2023/05/21 03:29:38;;;;;;;8.25;2.97;;;11.00;87.70;;;;;;5050510;28;20354;-72
2023/05/21 03:32:05;;;;;;;5.40;2.53;;;10.90;87.80;;;;;;5047194;28;20044;-71
2023/05/21 03:34:33;;;;;;;7.07;2.95;;;10.90;87.80;;;;;;5044434;28;20037;-71
2023/05/21 03:36:58;;;;;;;8.15;2.50;;;10.90;87.60;;;;;;5046496;28;20021;-71
2023/05/21 03:39:24;;;;;;;6.82;2.67;;;10.80;88.00;;;;;;5046674;28;20031;-71
2023/05/21 03:41:50;;;;;;;7.68;2.58;;;10.90;87.90;;;;;;5049051;28;20031;-72
2023/05/21 03:44:15;;;;;;;6.70;2.45;;;10.90;88.00;;;;;;5048637;28;20099;-71
2023/05/21 03:46:41;;;;;;;6.13;2.50;;;10.90;87.90;;;;;;5046493;28;20039;-72
2023/05/21 03:49:06;;;;;;;9.40;2.60;;;10.80;88.30;;;;;;5041582;28;20458;-72
2023/05/21 03:51:32;;;;;;;5.15;2.60;;;10.90;88.10;;;;;;5042573;28;20094;-72
2023/05/21 03:53:58;;;;;;;6.85;2.83;;;10.90;88.30;;;;;;5049684;28;20414;-72
2023/05/21 03:56:24;;;;;;;6.70;2.80;;;11.00;88.00;;;;;;5049363;28;20112;-72
2023/05/21 03:58:50;;;;;;;8.93;2.92;;;11.00;88.10;;;;;;5050534;28;20033;-72
2023/05/21 04:01:16;;;;;;;5.95;2.90;;;11.10;87.90;;;;;;5052204;28;20740;-70
2023/05/21 04:03:42;;;;;;;7.13;2.55;;;11.10;87.80;;;;;;5052334;28;20025;-70
2023/05/21 04:06:08;;;;;;;7.00;2.65;;;11.20;87.90;;;;;;5046047;28;20392;-70
2023/05/21 04:08:35;;;;;;;10.43;2.80;;;11.30;87.90;;;;;;5046366;28;20533;-69
2023/05/21 04:11:01;;;;;;;5.85;2.70;;;11.30;87.60;;;;;;5053765;28;20495;-69
2023/05/21 04:13:27;;;;;;;10.13;2.45;;;11.30;87.70;;;;;;5053208;28;20041;-70
2023/05/21 04:15:53;;;;;;;8.10;2.97;;;11.40;87.50;;;;;;5044449;28;20146;-70
2023/05/21 04:18:19;;;;;;;9.70;2.78;;;11.50;87.40;;;;;;5047527;28;20453;-70
2023/05/21 04:20:45;;;;;;;9.80;2.60;;;11.50;87.30;;;;;;5045797;28;20017;-70
2023/05/21 04:23:10;;;;;;;6.95;3.35;;;11.60;87.10;;;;;;5047176;28;20398;-70
2023/05/21 04:25:37;;;;;;;6.35;2.65;;;11.60;87.00;;;;;;5044779;28;20083;-70
2023/05/21 04:28:03;;;;;;;7.00;2.85;;;11.70;87.00;;;;;;5033845;28;20374;-68
2023/05/21 04:30:28;;;;;;;5.65;2.72;;;11.70;87.10;;;;;;5049314;28;20040;-68
2023/05/21 04:32:54;;;;;;;7.25;2.50;;;11.70;86.80;;;;;;5045569;28;20802;-68
2023/05/21 04:35:20;;;;;;;10.52;2.83;;;11.70;86.70;;;;;;5048422;28;20029;-68
2023/05/21 04:37:45;;;;;;;7.18;2.72;;;11.70;86.70;;;;;;5045596;28;20029;-68
2023/05/21 04:40:17;;;;;;;7.32;3.03;;;11.70;86.70;;;;;;5051409;28;20020;-70
2023/05/21 04:42:45;;;;;;;5.25;2.55;;;11.70;86.90;;;;;;5045220;28;20029;-70
2023/05/21 04:45:10;;;;;;;8.02;3.05;;;11.70;86.90;;;;;;5043680;28;20036;-71
2023/05/21 04:47:36;;;;;;;12.73;2.85;;;11.80;86.70;;;;;;5048090;28;20017;-70
2023/05/21 04:50:03;;;;;;;5.88;2.67;;;11.80;86.80;;;;;;5052180;28;20028;-70
2023/05/21 04:52:29;;;;;;;8.38;3.05;;;11.80;86.80;;;;;;5046944;28;20112;-70
2023/05/21 04:54:55;;;;;;;5.25;2.67;;;11.80;86.80;;;;;;5048538;28;20067;-68
2023/05/21 04:57:20;;;;;;;6.25;2.80;;;11.90;87.00;;;;;;5043258;28;20028;-69
2023/05/21 04:59:46;;;;;;;7.20;2.75;;;11.90;87.00;;;;;;5047821;28;20064;-69
2023/05/21 05:02:12;;;;;;;8.50;2.85;;;12.00;86.90;;;;;;5045584;28;20037;-68
2023/05/21 05:04:37;;;;;;;7.45;3.20;;;12.10;86.90;;;;;;5047820;28;20040;-69
2023/05/21 05:07:03;;;;;;;5.97;3.22;;;12.20;86.80;;;;;;5041839;28;20065;-68
2023/05/21 05:09:30;;;;;;;9.15;3.17;;;12.30;86.60;;;;;;5060476;28;20032;-69
2023/05/21 05:11:55;;;;;;;6.68;3.05;;;12.30;86.50;;;;;;5048688;28;20029;-68
2023/05/21 05:14:21;;;;;;;12.23;3.15;;;12.30;86.00;;;;;;5055012;28;20376;-68
2023/05/21 05:16:49;;;;;;;6.35;2.85;;;12.50;86.20;;;;;;5041851;28;20040;-68
2023/05/21 05:19:15;;;;;;;5.85;3.22;;;12.60;86.00;;;;;;5049078;28;20406;-69
2023/05/21 05:21:40;;;;;;;6.47;3.03;;;12.60;85.70;;;;;;5054223;28;20032;-68
2023/05/21 05:24:06;;;;;;;6.45;3.20;;;12.60;85.10;;;;;;5047617;28;20037;-68
2023/05/21 05:26:31;;;;;;;7.40;3.03;;;12.70;85.10;;;;;;5045385;28;20041;-69
2023/05/21 05:28:57;;;;;;;10.27;3.80;;;12.70;85.20;;;;;;5043811;28;20025;-68
2023/05/21 05:31:22;;;;;;;8.07;3.22;;;12.80;85.20;;;;;;5051105;28;20458;-72
2023/05/21 05:33:48;;;;;;;7.47;3.35;;;12.90;85.50;;;;;;5057194;28;20028;-72
2023/05/21 05:36:13;;;;;;;7.72;3.75;;;13.00;85.80;;;;;;5047731;28;20127;-72
2023/05/21 05:38:39;;;;;;;6.75;3.35;;;13.10;85.20;;;;;;5056833;28;20037;-72
2023/05/21 05:41:05;;;;;;;8.25;3.40;;;13.30;84.40;;;;;;5056946;28;20032;-72
2023/05/21 05:43:30;;;;;;;6.25;3.53;;;13.30;84.30;;;;;;5058685;28;20025;-72
2023/05/21 05:45:56;;;;;;;7.25;3.38;;;13.50;84.60;;;;;;5045026;28;20067;-72
2023/05/21 05:48:21;;;;;;;7.18;3.25;;;13.40;84.10;;;;;;5059772;28;20026;-72
2023/05/21 05:50:47;;;;;;;7.15;2.90;;;13.60;84.50;;;;;;5046136;28;20028;-72
2023/05/21 05:53:13;;;;;;;8.52;3.90;;;13.60;83.80;;;;;;5042459;28;20034;-72
2023/05/21 05:55:39;;;;;;;6.45;3.30;;;13.80;84.30;;;;;;5052511;28;20419;-72
2023/05/21 05:58:05;;;;;;;8.88;3.67;;;13.80;83.20;;;;;;5046456;28;20040;-72
2023/05/21 06:00:31;;;;;;;9.00;3.90;;;14.00;83.70;;;;;;5047573;28;20032;-72
2023/05/21 06:02:56;;;;;;;5.82;3.17;;;14.20;83.30;;;;;;5047867;28;20036;-72
2023/05/21 06:05:22;;;;;;;8.50;3.72;;;14.40;83.40;;;;;;5050329;28;20043;-72
2023/05/21 06:07:47;;;;;;;7.95;3.58;;;14.50;81.20;;;;;;5036252;28;20028;-72
2023/05/21 06:10:12;;;;;;;6.82;3.60;;;14.50;82.10;;;;;;5042787;28;20029;-72
2023/05/21 06:12:38;;;;;;;7.43;3.38;;;14.60;81.80;;;;;;5047547;28;20029;-72
2023/05/21 06:15:04;;;;;;;9.75;3.45;;;14.70;82.00;;;;;;5047979;28;20376;-72
2023/05/21 06:17:30;;;;;;;8.45;3.67;;;14.60;81.60;;;;;;5044557;28;20021;-72
2023/05/21 06:19:56;;;;;;;6.38;3.40;;;14.80;81.90;;;;;;5047540;28;20115;-73
2023/05/21 06:22:21;;;;;;;10.13;3.72;;;15.00;81.60;;;;;;5045186;28;20104;-72
2023/05/21 06:24:47;;;;;;;8.73;3.58;;;15.00;80.80;;;;;;5042254;28;20037;-72
2023/05/21 06:27:12;;;;;;;7.72;3.85;;;15.20;81.20;;;;;;5043643;28;20039;-72
2023/05/21 06:29:39;;;;;;;8.95;3.75;;;15.20;79.80;;;;;;5039790;28;20021;-72
2023/05/21 06:32:06;;;;;;;6.15;3.58;;;15.40;81.40;;;;;;5050793;28;20021;-72
2023/05/21 06:34:31;;;;;;;6.65;3.75;;;15.50;80.80;;;;;;5059422;28;20029;-72
2023/05/21 06:36:57;;;;;;;8.30;3.97;;;15.60;80.20;;;;;;5064535;28;20042;-72
2023/05/21 06:39:23;;;;;;;6.15;3.35;;;15.80;80.30;;;;;;5051304;28;20029;-73
2023/05/21 06:41:48;;;;;;;7.47;4.10;;;15.90;79.80;;;;;;5046674;28;20403;-73
2023/05/21 06:44:15;;;;;;;7.30;3.60;;;16.00;78.50;;;;;;5065053;28;20029;-73
2023/05/21 06:46:41;;;;;;;8.65;4.00;;;16.10;79.60;;;;;;5066702;28;20029;-73
2023/05/21 06:49:06;;;;;;;7.13;4.28;;;16.40;79.50;;;;;;5059185;28;20028;-73
2023/05/21 06:51:32;;;;;;;8.13;4.57;;;16.40;78.40;;;;;;5067941;28;20032;-73
2023/05/21 06:53:57;;;;;;;11.20;4.80;;;16.50;78.10;;;;;;5056680;28;20028;-73
2023/05/21 06:56:23;;;;;;;7.60;4.57;;;16.90;77.50;;;;;;5058431;28;20112;-73
2023/05/21 06:58:48;;;;;;;8.18;4.30;;;17.00;77.00;;;;;;5042892;28;20025;-73
2023/05/21 07:01:15;;;;;;;9.88;4.28;;;17.00;76.50;;;;;;5055395;28;20442;-73
2023/05/21 07:03:40;;;;;;;8.50;4.47;;;17.40;77.90;;;;;;5050106;28;20032;-73
2023/05/21 07:06:06;;;;;;;11.45;4.80;;;17.60;77.00;;;;;;5042962;28;20037;-73
2023/05/21 07:08:31;;;;;;;8.75;4.25;;;17.60;75.30;;;;;;5059977;28;20016;-73
2023/05/21 07:10:57;;;;;;;7.07;4.90;;;17.60;75.50;;;;;;5045829;28;20029;-73
2023/05/21 07:13:22;;;;;;;11.43;5.18;;;17.90;76.20;;;;;;5058337;28;20043;-73
2023/05/21 07:15:48;;;;;;;9.88;4.85;;;17.80;74.40;;;;;;5051358;28;20055;-73
2023/05/21 07:18:14;;;;;;;9.15;5.00;;;18.00;75.00;;;;;;5055805;28;20444;-73
2023/05/21 07:20:39;;;;;;;8.80;4.30;;;18.00;75.10;;;;;;5049641;28;20029;-73
2023/05/21 07:23:05;;;;;;;10.57;5.78;;;18.00;75.40;;;;;;5043036;28;20447;-73
2023/05/21 07:25:30;;;;;;;10.00;5.80;;;17.90;74.10;;;;;;5043320;28;20164;-73
2023/05/21 07:27:56;;;;;;;9.52;5.00;;;18.00;75.20;;;;;;5048895;28;20043;-73
2023/05/21 07:30:21;;;;;;;7.43;5.30;;;18.00;75.30;;;;;;5048548;28;20462;-73
2023/05/21 07:32:47;;;;;;;9.38;5.05;;;18.00;75.10;;;;;;5043466;28;20546;-73
2023/05/21 07:35:12;;;;;;;9.50;5.88;;;18.10;74.80;;;;;;5044580;28;20033;-73
2023/05/21 07:37:38;;;;;;;9.20;6.15;;;18.30;76.40;;;;;;5041993;28;20033;-72
2023/05/21 07:40:05;;;;;;;11.32;7.22;;;18.10;74.50;;;;;;5050678;28;20025;-72
2023/05/21 07:42:30;;;;;;;14.15;6.93;;;18.20;74.20;;;;;;5045092;28;20449;-72
2023/05/21 07:44:56;;;;;;;10.40;6.72;;;18.60;72.40;;;;;;5048312;28;20051;-73
2023/05/21 07:47:22;;;;;;;9.13;5.97;;;19.10;74.30;;;;;;5045456;28;20443;-72
2023/05/21 07:49:48;;;;;;;11.48;6.97;;;19.40;71.50;;;;;;5038089;28;20026;-73
2023/05/21 07:52:13;;;;;;;13.00;7.03;;;19.70;70.70;;;;;;5043627;28;20079;-73
2023/05/21 07:54:39;;;;;;;11.90;7.13;;;20.00;69.90;;;;;;5052003;28;20041;-73
2023/05/21 07:57:04;;;;;;;12.43;6.85;;;20.00;69.40;;;;;;5047612;28;20047;-72
2023/05/21 07:59:30;;;;;;;13.32;6.75;;;20.10;69.40;;;;;;5046798;28;20029;-72
2023/05/21 08:01:56;;;;;;;12.05;6.78;;;20.10;70.00;;;;;;5050447;28;20037;-72
2023/05/21 08:04:22;;;;;;;10.95;6.53;;;20.30;69.60;;;;;;5037758;28;20025;-72
2023/05/21 08:06:47;;;;;;;10.23;6.07;;;20.40;68.10;;;;;;5048785;28;20032;-72
2023/05/21 08:09:13;;;;;;;12.18;6.65;;;20.50;69.20;;;;;;5044763;28;20021;-73
2023/05/21 08:11:38;;;;;;;11.48;7.85;;;20.60;69.90;;;;;;5044995;28;20030;-72
2023/05/21 08:14:04;;;;;;;16.25;7.50;;;20.10;68.50;;;;;;5049406;28;20017;-73
2023/05/21 08:16:30;;;;;;;8.60;6.03;;;20.30;70.70;;;;;;5049120;28;20033;-73
2023/05/21 08:18:55;;;;;;;9.57;5.85;;;20.40;68.70;;;;;;5055987;28;20037;-73
2023/05/21 08:21:21;;;;;;;9.65;6.60;;;20.50;70.80;;;;;;5047878;28;20025;-72
2023/05/21 08:23:47;;;;;;;11.38;6.53;;;20.40;67.20;;;;;;5040833;28;20465;-72
2023/05/21 08:26:15;;;;;;;10.93;6.60;;;20.60;67.80;;;;;;5046708;28;20084;-72
2023/05/21 08:28:40;;;;;;;13.55;7.00;;;20.50;69.30;;;;;;5046501;28;20028;-72
2023/05/21 08:31:06;;;;;;;10.00;6.05;;;20.90;69.90;;;;;;5053271;28;20036;-72
2023/05/21 08:33:35;;;;;;;11.88;6.82;;;21.00;69.70;;;;;;5049573;28;20040;-72
2023/05/21 08:36:02;;;;;;;11.63;6.63;;;21.10;67.70;;;;;;5046478;28;20073;-72
2023/05/21 08:38:27;;;;;;;11.02;6.70;;;21.10;68.60;;;;;;5045750;28;20112;-72
2023/05/21 08:40:54;;;;;;;11.10;7.20;;;21.10;67.50;;;;;;5049985;28;20107;-72
2023/05/21 08:43:20;;;;;;;12.77;7.65;;;21.40;68.80;;;;;;5046268;28;20029;-73
2023/05/21 08:45:53;;;;;;;11.18;7.53;;;21.40;65.70;;;;;;5048735;28;20047;-72
2023/05/21 08:48:21;;;;;;;10.25;7.10;;;21.70;67.90;;;;;;5048553;28;20025;-72
2023/05/21 08:50:48;;;;;;;10.48;7.00;;;21.70;67.10;;;;;;5048851;28;20021;-72
2023/05/21 08:53:14;;;;;;;9.20;7.28;;;21.80;67.20;;;;;;5047443;28;20028;-72
2023/05/21 08:55:41;;;;;;;10.93;7.10;;;21.90;66.90;;;;;;5048376;28;20469;-72
2023/05/21 08:58:07;;;;;;;12.30;7.05;;;22.00;65.10;;;;;;5042990;28;20051;-72
2023/05/21 09:00:32;;;;;;;12.48;6.72;;;22.00;65.60;;;;;;5050905;28;20024;-72
2023/05/21 09:02:59;;;;;;;11.25;6.80;;;22.40;65.40;;;;;;5053772;28;20095;-72
2023/05/21 09:05:27;;;;;;;10.07;6.93;;;22.50;67.60;;;;;;5050071;28;20046;-73
2023/05/21 09:08:05;;;;;;;12.98;6.97;;;22.80;66.40;;;;;;5054448;28;20039;-72
2023/05/21 09:10:46;;;;;;;10.70;7.43;;;23.20;66.30;;;;;;5055212;28;20047;-72
2023/05/21 09:13:13;;;;;;;11.77;8.13;;;23.50;64.50;;;;;;5055558;28;20029;-72
2023/05/21 09:15:40;;;;;;;9.88;6.57;;;23.20;63.20;;;;;;5053108;28;20452;-72
2023/05/21 09:18:06;;;;;;;12.05;7.72;;;23.20;63.40;;;;;;5049138;28;20470;-72
2023/05/21 09:20:32;;;;;;;12.57;7.85;;;23.40;63.90;;;;;;5059658;28;20053;-72
2023/05/21 09:23:02;;;;;;;9.38;7.22;;;23.50;63.10;;;;;;5056270;28;20040;-72
2023/05/21 09:25:28;;;;;;;12.65;7.20;;;23.40;62.40;;;;;;5049256;28;20080;-72
2023/05/21 09:27:56;;;;;;;12.15;8.23;;;23.40;62.70;;;;;;5054214;28;20045;-72
2023/05/21 09:30:22;;;;;;;11.65;8.13;;;23.80;63.00;;;;;;5055409;28;20181;-72
2023/05/21 09:32:58;;;;;;;16.67;7.82;;;23.60;60.90;;;;;;5051341;28;20470;-73
2023/05/21 09:35:24;;;;;;;10.50;7.05;;;24.00;62.80;;;;;;5051141;28;20039;-73
2023/05/21 09:37:52;;;;;;;11.25;7.40;;;24.40;62.20;;;;;;5050932;28;20435;-73
2023/05/21 09:40:19;;;;;;;9.93;7.40;;;24.20;63.10;;;;;;5059806;28;20017;-73
2023/05/21 09:42:51;;;;;;;10.55;7.28;;;24.30;62.50;;;;;;5059084;28;20485;-73
2023/05/21 09:45:18;;;;;;;10.43;7.88;;;24.40;62.40;;;;;;5061747;28;20036;-72
2023/05/21 09:47:45;;;;;;;11.75;6.65;;;24.30;59.40;;;;;;5048714;28;20090;-73
2023/05/21 09:50:12;;;;;;;10.50;7.65;;;24.70;61.50;;;;;;5048794;28;20041;-72
2023/05/21 09:52:38;;;;;;;12.60;8.10;;;24.90;61.20;;;;;;5048406;28;20036;-73
2023/05/21 09:55:05;;;;;;;10.13;7.38;;;25.20;59.70;;;;;;5046163;28;20637;-73
2023/05/21 09:57:31;;;;;;;17.08;7.70;;;24.90;59.60;;;;;;5049374;28;20492;-73
2023/05/21 09:59:56;;;;;;;11.05;7.90;;;24.90;60.10;;;;;;5053310;28;20033;-73
2023/05/21 10:02:23;;;;;;;11.20;8.45;;;25.30;60.00;;;;;;5041772;28;20520;-72
2023/05/21 10:04:50;;;;;;;11.00;8.32;;;25.40;60.40;;;;;;5044749;28;20528;-72
2023/05/21 10:07:18;;;;;;;13.55;7.40;;;25.50;58.00;;;;;;5044622;28;20505;-73
2023/05/21 10:09:47;;;;;;;10.75;8.27;;;26.00;59.60;;;;;;5050003;28;20036;-72
2023/05/21 10:12:15;;;;;;;9.68;7.60;;;25.90;59.80;;;;;;5052507;28;20021;-73
2023/05/21 10:14:44;;;;;;;10.82;8.20;;;26.20;58.80;;;;;;5053463;28;20140;-73
2023/05/21 10:17:11;;;;;;;11.73;8.10;;;26.10;59.00;;;;;;5048459;28;20025;-72
2023/05/21 10:19:38;;;;;;;11.55;7.45;;;26.30;56.10;;;;;;5050783;28;20124;-73
2023/05/21 10:22:05;;;;;;;12.02;7.30;;;26.30;58.00;;;;;;5045093;28;20025;-73
2023/05/21 10:24:31;;;;;;;11.43;7.75;;;26.20;57.40;;;;;;5052591;28;20025;-72
2023/05/21 10:26:57;;;;;;;11.02;7.80;;;26.30;56.90;;;;;;5057512;28;20032;-73
2023/05/21 10:29:24;;;;;;;10.88;7.60;;;26.10;56.60;;;;;;5051955;28;20074;-73
2023/05/21 10:31:51;;;;;;;11.13;7.60;;;26.30;55.60;;;;;;5054865;28;20028;-73
2023/05/21 10:34:18;;;;;;;10.95;7.70;;;26.90;57.20;;;;;;5048066;28;20378;-73
2023/05/21 10:36:44;;;;;;;11.23;7.35;;;27.00;54.90;;;;;;5049291;28;20037;-73
2023/05/21 10:39:11;;;;;;;14.45;8.07;;;26.90;57.40;;;;;;5047331;28;20533;-73
2023/05/21 10:41:55;;;;;;;10.93;7.68;;;26.80;56.00;;;;;;5048400;28;20017;-73
2023/05/21 10:44:26;;;;;;;12.27;7.90;;;27.30;56.20;;;;;;5041616;28;20140;-73
2023/05/21 10:47:05;;;;;;;10.95;7.78;;;27.00;55.00;;;;;;5047180;28;20112;-73
2023/05/21 10:50:08;;;;;;;12.50;7.53;;;27.20;53.50;;;;;;5051615;28;20357;-73
2023/05/21 10:52:43;;;;;;;11.98;7.68;;;27.40;52.80;;;;;;5045851;28;20017;-73
2023/05/21 10:55:41;;;;;;;11.80;7.55;;;27.80;53.30;;;;;;5044240;28;20044;-73
2023/05/21 10:58:39;;;;;;;9.00;7.25;;;27.40;51.50;;;;;;5045334;28;20422;-73
2023/05/21 11:01:06;;;;;;;10.75;7.97;;;27.60;52.20;;;;;;5042604;28;20056;-73
2023/05/21 11:03:32;;;;;;;11.45;7.65;;;28.00;53.30;;;;;;5052065;28;20097;-73
2023/05/21 11:06:00;;;;;;;10.75;7.07;;;28.20;49.90;;;;;;5050559;28;20033;-71
2023/05/21 11:08:33;;;;;;;9.75;7.57;;;28.30;49.20;;;;;;5044435;28;20532;-74
2023/05/21 11:10:58;;;;;;;9.32;7.35;;;28.00;50.90;;;;;;5046107;28;20025;-74
2023/05/21 11:13:25;;;;;;;10.55;7.53;;;28.10;50.40;;;;;;5046067;28;20478;-74
2023/05/21 11:15:57;;;;;;;14.07;7.43;;;28.30;49.80;;;;;;5042883;28;20044;-73
2023/05/21 11:18:34;;;;;;;12.35;7.28;;;28.20;50.40;;;;;;5048199;28;20024;-73
2023/05/21 11:21:09;;;;;;;11.27;7.68;;;27.90;50.20;;;;;;5045188;28;20115;-73
2023/05/21 11:23:51;;;;;;;8.52;6.80;;;27.70;51.70;;;;;;5041615;28;20041;-72
2023/05/21 11:26:18;;;;;;;10.63;7.65;;;27.80;50.50;;;;;;5043743;28;20148;-73
2023/05/21 11:28:43;;;;;;;11.00;7.55;;;27.20;51.10;;;;;;5046853;28;20120;-72
2023/05/21 11:31:25;;;;;;;11.10;7.53;;;26.90;52.10;;;;;;5040336;28;20104;-73
2023/05/21 11:34:10;;;;;;;11.23;7.28;;;26.70;51.10;;;;;;5049274;28;20074;-73
2023/05/21 11:36:44;;;;;;;10.18;7.13;;;26.70;52.10;;;;;;5044058;28;20036;-73
2023/05/21 11:39:12;;;;;;;8.70;7.40;;;27.20;52.50;;;;;;5051277;28;20037;-74
2023/05/21 11:41:50;;;;;;;9.38;7.45;;;27.20;51.80;;;;;;5043804;28;20457;-74
2023/05/21 11:44:15;;;;;;;9.20;7.25;;;27.20;52.40;;;;;;5055524;28;20035;-73
2023/05/21 11:46:42;;;;;;;11.35;7.57;;;27.00;53.40;;;;;;5038553;28;20421;-73
2023/05/21 11:49:08;;;;;;;10.00;7.90;;;27.20;51.90;;;;;;5048968;28;20032;-74
2023/05/21 11:51:35;;;;;;;11.02;7.95;;;27.50;51.60;;;;;;5050279;28;20436;-73
2023/05/21 11:54:01;;;;;;;10.68;7.50;;;27.10;52.40;;;;;;5051365;28;20482;-74
2023/05/21 11:56:27;;;;;;;10.55;6.75;;;27.70;52.00;;;;;;5048612;28;20040;-74
2023/05/21 11:58:54;;;;;;;11.88;7.93;;;28.50;50.10;;;;;;5049690;28;20413;-74
2023/05/21 12:01:23;;;;;;;9.70;6.90;;;28.40;51.10;;;;;;5049249;28;20029;-74
2023/05/21 12:03:49;;;;;;;9.57;7.35;;;28.70;49.60;;;;;;5042846;28;20032;-74
2023/05/21 12:06:16;;;;;;;12.68;7.32;;;29.20;50.30;;;;;;5047927;28;20025;-74
2023/05/21 12:08:42;;;;;;;12.80;7.63;;;28.50;47.30;;;;;;5050993;28;20055;-74
2023/05/21 12:11:08;;;;;;;12.13;7.60;;;28.10;47.70;;;;;;5048344;28;20025;-74
2023/05/21 12:13:33;;;;;;;12.43;8.13;;;28.10;48.30;;;;;;5039943;28;20409;-74
2023/05/21 12:15:58;;;;;;;10.80;7.43;;;29.00;47.80;;;;;;5044308;28;20035;-74
2023/05/21 12:18:25;;;;;;;9.98;7.80;;;29.40;47.80;;;;;;5046644;28;20032;-73
2023/05/21 12:20:50;;;;;;;9.07;7.32;;;29.90;47.10;;;;;;5042293;28;20037;-74
2023/05/21 12:23:23;;;;;;;12.52;7.35;;;30.00;45.10;;;;;;5036079;28;20464;-74
2023/05/21 12:25:49;;;;;;;12.80;7.53;;;29.50;44.20;;;;;;5046451;28;20473;-74
2023/05/21 12:28:15;;;;;;;9.15;7.05;;;29.60;45.30;;;;;;5038627;28;20037;-75
2023/05/21 12:30:41;;;;;;;9.88;7.45;;;30.50;46.00;;;;;;5041656;28;20051;-73
2023/05/21 12:33:06;;;;;;;10.20;7.50;;;30.40;43.00;;;;;;5037981;28;20049;-73
2023/05/21 12:35:32;;;;;;;10.43;7.35;;;30.90;45.00;;;;;;5045954;28;20438;-73
2023/05/21 12:38:00;;;;;;;8.52;7.05;;;31.00;45.80;;;;;;5038949;28;20105;-74
2023/05/21 12:40:39;;;;;;;11.60;7.03;;;31.00;42.90;;;;;;5056960;28;20028;-74
2023/05/21 12:43:05;;;;;;;13.27;7.05;;;30.70;45.70;;;;;;5047152;28;20392;-73